Time;durP1;ratioP1;P1;durP2;ratioP2;P2;SDS_P1;SDS_P2;PMS_P1;PMS_P2;Temp;Humidity;BMP_temperature;BMP_pressure;BME280_temperature;BME280_humidity;BME280_pressure;Samples;Min_cycle;Max_cycle;Signal;HPM_P1;HPM_P2
2023/03/07 00:00:41;;;;;;;;;13.00;11.75;;;;;;;;5070711;28;64217;-86
2023/03/07 00:03:06;;;;;;;;;16.50;11.75;;;;;;;;5092746;28;61806;-86
2023/03/07 00:05:31;;;;;;;;;18.25;12.00;;;;;;;;5092251;27;61946;-82
2023/03/07 00:07:57;;;;;;;;;21.25;12.00;;;;;;;;5074357;28;62253;-86
2023/03/07 00:10:23;;;;;;;;;20.00;12.00;;;;;;;;5091181;28;61858;-87
2023/03/07 00:12:48;;;;;;;;;17.00;15.50;;;;;;;;5072453;28;61685;-86
2023/03/07 00:15:13;;;;;;;;;17.00;13.25;;;;;;;;5089688;28;62257;-86
2023/03/07 00:17:39;;;;;;;;;16.50;11.75;;;;;;;;5069364;28;61729;-86
2023/03/07 00:20:08;;;;;;;;;14.50;12.50;;;;;;;;5069636;28;64721;-85
2023/03/07 00:22:34;;;;;;;;;16.00;13.00;;;;;;;;5072394;28;61842;-86
2023/03/07 00:24:59;;;;;;;;;13.75;12.25;;;;;;;;5072424;28;62007;-85
2023/03/07 00:27:24;;;;;;;;;18.50;11.75;;;;;;;;5089930;27;61736;-87
2023/03/07 00:29:50;;;;;;;;;16.00;13.00;;;;;;;;5073462;28;64028;-87
2023/03/07 00:32:15;;;;;;;;;25.25;15.00;;;;;;;;5074272;28;61180;-85
2023/03/07 00:34:41;;;;;;;;;17.75;16.00;;;;;;;;5087062;28;61978;-86
2023/03/07 00:37:06;;;;;;;;;12.25;11.25;;;;;;;;5088785;28;61295;-86
2023/03/07 00:39:31;;;;;;;;;17.75;12.25;;;;;;;;5086610;28;61784;-84
2023/03/07 00:41:56;;;;;;;;;17.25;10.25;;;;;;;;5088215;28;61875;-85
2023/03/07 00:44:22;;;;;;;;;15.75;12.00;;;;;;;;5073009;28;61930;-86
2023/03/07 00:46:47;;;;;;;;;12.75;11.75;;;;;;;;5069878;28;61936;-85
2023/03/07 00:49:12;;;;;;;;;17.00;15.50;;;;;;;;5085781;28;62114;-85
2023/03/07 00:51:37;;;;;;;;;14.50;11.25;;;;;;;;5085863;28;61866;-85
2023/03/07 00:54:03;;;;;;;;;23.00;14.50;;;;;;;;5071074;28;61160;-85
2023/03/07 00:56:28;;;;;;;;;18.00;12.00;;;;;;;;5095774;28;61362;-86
2023/03/07 00:58:53;;;;;;;;;19.50;13.50;;;;;;;;5088413;27;62042;-86
2023/03/07 01:01:20;;;;;;;;;20.25;17.50;;;;;;;;5089457;28;61716;-85
2023/03/07 01:03:48;;;;;;;;;21.50;13.50;;;;;;;;5090781;28;62064;-85
2023/03/07 01:06:15;;;;;;;;;16.00;13.50;;;;;;;;5073219;28;62038;-85
2023/03/07 01:08:40;;;;;;;;;21.25;16.00;;;;;;;;5089321;28;61843;-85
2023/03/07 01:11:06;;;;;;;;;16.00;12.75;;;;;;;;5077025;28;61803;-87
2023/03/07 01:13:32;;;;;;;;;13.50;9.75;;;;;;;;5078921;28;61199;-86
2023/03/07 01:16:07;;;;;;;;;13.00;11.00;;;;;;;;5073523;28;61705;-86
2023/03/07 01:18:32;;;;;;;;;18.50;13.00;;;;;;;;5094531;28;61784;-85
2023/03/07 01:20:57;;;;;;;;;16.00;13.00;;;;;;;;5072387;28;61826;-85
2023/03/07 01:23:23;;;;;;;;;15.25;12.00;;;;;;;;5074311;28;62068;-85
2023/03/07 01:25:48;;;;;;;;;20.25;12.25;;;;;;;;5097034;28;62141;-86
2023/03/07 01:28:13;;;;;;;;;14.25;11.00;;;;;;;;5092488;27;62716;-85
2023/03/07 01:30:39;;;;;;;;;15.00;12.00;;;;;;;;5074738;28;61787;-85
2023/03/07 01:33:04;;;;;;;;;16.50;11.75;;;;;;;;5095213;28;61247;-85
2023/03/07 01:35:35;;;;;;;;;16.25;13.25;;;;;;;;5075125;27;61378;-86
2023/03/07 01:38:00;;;;;;;;;9.00;9.00;;;;;;;;5076010;27;63747;-85
2023/03/07 01:40:25;;;;;;;;;11.75;11.75;;;;;;;;5074040;28;61825;-85
2023/03/07 01:42:52;;;;;;;;;19.75;12.50;;;;;;;;5079298;28;61146;-85
2023/03/07 01:45:32;;;;;;;;;25.00;13.00;;;;;;;;5075938;28;61613;-85
2023/03/07 01:47:57;;;;;;;;;12.00;11.00;;;;;;;;5074279;28;63541;-85
2023/03/07 01:50:23;;;;;;;;;16.00;11.00;;;;;;;;5075523;28;61422;-86
2023/03/07 01:52:51;;;;;;;;;12.25;9.50;;;;;;;;5074979;28;61789;-86
2023/03/07 01:55:16;;;;;;;;;13.00;10.00;;;;;;;;5095424;28;62023;-87
2023/03/07 01:57:43;;;;;;;;;16.25;11.50;;;;;;;;5072839;28;63511;-86
2023/03/07 02:00:11;;;;;;;;;16.00;11.50;;;;;;;;5089012;27;61659;-85
2023/03/07 02:02:39;;;;;;;;;5.00;4.00;;;;;;;;5073187;28;61918;-85
2023/03/07 02:05:21;;;;;;;;;13.00;12.00;;;;;;;;5076832;28;61406;-85
2023/03/07 02:07:48;;;;;;;;;15.50;11.75;;;;;;;;5072963;28;63933;-86
2023/03/07 02:10:14;;;;;;;;;22.25;14.00;;;;;;;;5074786;28;61316;-87
2023/03/07 02:12:40;;;;;;;;;16.75;15.75;;;;;;;;5072200;28;61938;-85
2023/03/07 02:15:07;;;;;;;;;14.25;11.50;;;;;;;;5076252;28;61312;-85
2023/03/07 02:17:32;;;;;;;;;21.00;14.25;;;;;;;;5071782;28;63563;-85
2023/03/07 02:20:22;;;;;;;;;16.25;11.00;;;;;;;;5073809;28;61877;-85
2023/03/07 02:22:48;;;;;;;;;15.75;12.00;;;;;;;;5079798;28;61203;-86
2023/03/07 02:25:18;;;;;;;;;20.00;12.50;;;;;;;;5091518;28;61814;-86
2023/03/07 02:27:44;;;;;;;;;13.00;10.75;;;;;;;;5093998;28;61914;-87
2023/03/07 02:30:10;;;;;;;;;17.00;11.25;;;;;;;;5095247;28;61168;-86
2023/03/07 02:32:35;;;;;;;;;19.50;14.25;;;;;;;;5091775;27;61413;-86
2023/03/07 02:35:00;;;;;;;;;18.50;15.75;;;;;;;;5090721;28;62000;-86
2023/03/07 02:37:29;;;;;;;;;17.50;12.25;;;;;;;;5075528;28;64682;-87
2023/03/07 02:39:55;;;;;;;;;13.00;9.25;;;;;;;;5093217;28;61169;-86
2023/03/07 02:42:22;;;;;;;;;21.25;14.25;;;;;;;;5073605;28;61200;-85
2023/03/07 02:44:55;;;;;;;;;17.75;12.50;;;;;;;;5094873;28;61222;-87
2023/03/07 02:47:20;;;;;;;;;17.75;12.25;;;;;;;;5072770;28;64105;-86
2023/03/07 02:49:45;;;;;;;;;17.00;12.75;;;;;;;;5075047;28;61732;-86
2023/03/07 02:52:10;;;;;;;;;12.50;11.50;;;;;;;;5078835;28;61362;-87
2023/03/07 02:54:36;;;;;;;;;18.50;13.00;;;;;;;;5075348;28;61414;-85
2023/03/07 02:57:01;;;;;;;;;22.50;12.50;;;;;;;;5091222;28;63207;-85
2023/03/07 02:59:26;;;;;;;;;22.75;12.75;;;;;;;;5071876;28;61962;-85
2023/03/07 03:01:51;;;;;;;;;15.50;10.25;;;;;;;;5074724;28;61643;-86
2023/03/07 03:04:17;;;;;;;;;21.25;12.00;;;;;;;;5071448;28;61729;-85
2023/03/07 03:06:42;;;;;;;;;18.25;13.75;;;;;;;;5091004;28;61687;-85
2023/03/07 03:09:07;;;;;;;;;14.25;12.25;;;;;;;;5090837;27;61230;-85
2023/03/07 03:11:32;;;;;;;;;18.50;14.75;;;;;;;;5070958;28;61935;-85
2023/03/07 03:13:58;;;;;;;;;16.00;11.00;;;;;;;;5071427;28;61380;-85
2023/03/07 03:16:23;;;;;;;;;18.50;12.25;;;;;;;;5074513;28;63932;-86
2023/03/07 03:18:48;;;;;;;;;13.50;12.50;;;;;;;;5073802;28;61232;-85
2023/03/07 03:21:14;;;;;;;;;21.50;11.50;;;;;;;;5070669;28;62036;-86
2023/03/07 03:23:40;;;;;;;;;21.25;11.25;;;;;;;;5072716;28;61832;-86
2023/03/07 03:26:06;;;;;;;;;12.50;11.50;;;;;;;;5068804;27;64647;-85
2023/03/07 03:28:35;;;;;;;;;14.25;14.25;;;;;;;;5070431;28;61753;-85
2023/03/07 03:31:01;;;;;;;;;22.25;14.00;;;;;;;;5090165;28;62108;-86
2023/03/07 03:33:30;;;;;;;;;16.25;12.25;;;;;;;;5067014;28;61623;-85
2023/03/07 03:35:56;;;;;;;;;12.50;11.00;;;;;;;;5067088;28;64133;-85
2023/03/07 03:38:21;;;;;;;;;17.25;13.75;;;;;;;;5067871;28;61742;-85
2023/03/07 03:40:47;;;;;;;;;16.50;12.00;;;;;;;;5070563;28;61935;-85
2023/03/07 03:43:12;;;;;;;;;14.75;12.25;;;;;;;;5068583;28;61944;-85
2023/03/07 03:45:39;;;;;;;;;11.25;9.75;;;;;;;;5066424;28;65073;-85
2023/03/07 03:48:05;;;;;;;;;19.75;16.25;;;;;;;;5070095;28;61811;-85
2023/03/07 03:50:30;;;;;;;;;14.50;12.50;;;;;;;;5069019;28;61715;-85
2023/03/07 03:52:55;;;;;;;;;17.50;11.25;;;;;;;;5067548;28;62277;-85
2023/03/07 03:55:20;;;;;;;;;11.50;11.00;;;;;;;;5066673;28;63525;-85
2023/03/07 03:57:45;;;;;;;;;21.75;13.00;;;;;;;;5066082;28;61703;-85
2023/03/07 04:00:13;;;;;;;;;17.25;11.75;;;;;;;;5067057;28;61976;-85
2023/03/07 04:02:38;;;;;;;;;11.00;10.50;;;;;;;;5067166;28;61827;-85
2023/03/07 04:05:04;;;;;;;;;11.75;7.75;;;;;;;;5066972;28;61871;-85
2023/03/07 04:07:29;;;;;;;;;16.25;13.50;;;;;;;;5068694;28;61759;-85
2023/03/07 04:09:54;;;;;;;;;14.50;12.00;;;;;;;;5066196;28;61892;-85
2023/03/07 04:12:20;;;;;;;;;13.25;7.00;;;;;;;;5066491;28;61995;-85
2023/03/07 04:14:45;;;;;;;;;16.75;14.50;;;;;;;;5066913;28;64713;-85
2023/03/07 04:17:10;;;;;;;;;13.75;12.50;;;;;;;;5067174;28;62030;-85
2023/03/07 04:19:36;;;;;;;;;13.75;9.75;;;;;;;;5069478;28;61671;-85
2023/03/07 04:22:01;;;;;;;;;17.75;11.50;;;;;;;;5068771;28;61326;-85
2023/03/07 04:24:26;;;;;;;;;13.25;12.50;;;;;;;;5071265;28;61926;-86
2023/03/07 04:26:51;;;;;;;;;17.50;11.50;;;;;;;;5069923;28;61790;-85
2023/03/07 04:29:17;;;;;;;;;12.50;11.50;;;;;;;;5066954;28;61858;-85
2023/03/07 04:31:42;;;;;;;;;13.75;10.00;;;;;;;;5072933;28;61828;-86
2023/03/07 04:34:07;;;;;;;;;12.25;12.00;;;;;;;;5069414;28;63615;-85
2023/03/07 04:36:33;;;;;;;;;14.25;12.25;;;;;;;;5088420;28;61900;-85
2023/03/07 04:38:58;;;;;;;;;13.00;11.00;;;;;;;;5071069;28;61787;-86
2023/03/07 04:41:25;;;;;;;;;20.75;12.25;;;;;;;;5069466;28;61832;-84
2023/03/07 04:43:51;;;;;;;;;13.25;12.00;;;;;;;;5068306;28;63790;-85
2023/03/07 04:46:16;;;;;;;;;11.00;9.75;;;;;;;;5071293;28;61770;-86
2023/03/07 04:48:42;;;;;;;;;13.00;10.00;;;;;;;;5071123;28;61202;-86
2023/03/07 04:51:08;;;;;;;;;19.25;12.25;;;;;;;;5070393;28;61888;-85
2023/03/07 04:53:33;;;;;;;;;15.75;11.00;;;;;;;;5087191;28;61997;-85
2023/03/07 04:56:03;;;;;;;;;14.00;11.75;;;;;;;;5091048;28;61869;-86
2023/03/07 04:58:29;;;;;;;;;17.75;12.25;;;;;;;;5071688;28;61850;-85
2023/03/07 05:00:57;;;;;;;;;12.25;11.50;;;;;;;;5087558;28;61798;-86
2023/03/07 05:03:23;;;;;;;;;14.50;11.00;;;;;;;;5069785;28;63690;-86
2023/03/07 05:05:49;;;;;;;;;12.25;8.75;;;;;;;;5070085;28;61742;-85
2023/03/07 05:08:14;;;;;;;;;20.00;12.25;;;;;;;;5086760;28;61737;-85
2023/03/07 05:10:40;;;;;;;;;18.75;13.25;;;;;;;;5070016;28;61790;-84
2023/03/07 05:13:06;;;;;;;;;13.25;7.00;;;;;;;;5070571;28;64494;-86
2023/03/07 05:15:32;;;;;;;;;13.00;12.00;;;;;;;;5086539;27;61904;-81
2023/03/07 05:17:57;;;;;;;;;18.75;13.25;;;;;;;;5069953;28;61945;-85
2023/03/07 05:20:23;;;;;;;;;10.75;8.75;;;;;;;;5090117;28;61766;-85
2023/03/07 05:22:48;;;;;;;;;20.25;12.00;;;;;;;;5069665;28;63739;-86
2023/03/07 05:25:13;;;;;;;;;18.00;11.50;;;;;;;;5074830;28;62286;-86
2023/03/07 05:27:39;;;;;;;;;17.00;11.50;;;;;;;;5071748;28;61157;-85
2023/03/07 05:30:04;;;;;;;;;13.75;10.75;;;;;;;;5069153;28;61949;-85
2023/03/07 05:32:30;;;;;;;;;17.75;11.00;;;;;;;;5085355;28;61913;-85
2023/03/07 05:34:55;;;;;;;;;10.00;10.00;;;;;;;;5069455;28;61810;-87
2023/03/07 05:37:20;;;;;;;;;14.25;10.25;;;;;;;;5089710;28;61793;-85
2023/03/07 05:39:46;;;;;;;;;14.50;12.75;;;;;;;;5090001;28;61240;-85
2023/03/07 05:42:12;;;;;;;;;17.00;12.75;;;;;;;;5071062;28;63407;-86
2023/03/07 05:44:37;;;;;;;;;17.50;11.00;;;;;;;;5070169;28;61881;-85
2023/03/07 05:47:02;;;;;;;;;16.00;11.25;;;;;;;;5087934;27;61836;-86
2023/03/07 05:49:28;;;;;;;;;13.75;11.00;;;;;;;;5087470;28;61821;-85
2023/03/07 05:51:53;;;;;;;;;18.75;11.00;;;;;;;;5084899;28;61900;-86
2023/03/07 05:54:18;;;;;;;;;23.25;13.00;;;;;;;;5070293;28;61783;-85
2023/03/07 05:56:44;;;;;;;;;17.75;13.50;;;;;;;;5085335;28;61908;-85
2023/03/07 05:59:11;;;;;;;;;12.00;11.00;;;;;;;;5084213;28;61838;-85
2023/03/07 06:01:37;;;;;;;;;13.50;13.25;;;;;;;;5066185;28;63799;-86
2023/03/07 06:04:02;;;;;;;;;18.50;12.50;;;;;;;;5085326;28;61798;-85
2023/03/07 06:06:27;;;;;;;;;18.50;12.00;;;;;;;;5071757;28;62005;-86
2023/03/07 06:08:53;;;;;;;;;12.00;10.50;;;;;;;;5088545;28;61795;-85
2023/03/07 06:11:18;;;;;;;;;13.25;10.75;;;;;;;;5071540;28;63618;-86
2023/03/07 06:13:44;;;;;;;;;9.00;9.00;;;;;;;;5090082;27;61733;-84
2023/03/07 06:16:09;;;;;;;;;21.00;10.75;;;;;;;;5069613;28;61786;-85
2023/03/07 06:18:35;;;;;;;;;20.25;11.00;;;;;;;;5068051;28;62069;-85
2023/03/07 06:21:01;;;;;;;;;12.00;9.75;;;;;;;;5085390;27;62067;-85
2023/03/07 06:23:27;;;;;;;;;14.75;8.00;;;;;;;;5067627;27;62109;-85
2023/03/07 06:25:53;;;;;;;;;18.25;11.00;;;;;;;;5085819;28;61620;-85
2023/03/07 06:28:19;;;;;;;;;15.00;11.25;;;;;;;;5085533;27;62074;-85
2023/03/07 06:30:46;;;;;;;;;18.50;10.50;;;;;;;;5065987;28;64170;-85
2023/03/07 06:33:13;;;;;;;;;20.00;15.00;;;;;;;;5064449;28;61793;-86
2023/03/07 06:35:39;;;;;;;;;15.25;11.75;;;;;;;;5064874;28;61726;-86
2023/03/07 06:38:04;;;;;;;;;13.25;11.25;;;;;;;;5064965;28;62135;-85
2023/03/07 06:40:31;;;;;;;;;16.50;12.00;;;;;;;;5062928;28;65301;-82
2023/03/07 06:42:58;;;;;;;;;15.25;13.00;;;;;;;;5061293;28;61979;-83
2023/03/07 06:45:23;;;;;;;;;11.25;10.50;;;;;;;;5064252;28;62033;-83
2023/03/07 06:47:48;;;;;;;;;13.50;8.75;;;;;;;;5063025;28;62150;-83
2023/03/07 06:50:13;;;;;;;;;9.25;9.00;;;;;;;;5061455;28;63606;-83
2023/03/07 06:52:39;;;;;;;;;22.25;12.00;;;;;;;;5064198;28;61731;-84
2023/03/07 06:55:04;;;;;;;;;13.75;10.50;;;;;;;;5062308;28;61704;-84
2023/03/07 06:57:32;;;;;;;;;15.50;10.75;;;;;;;;5063684;28;61910;-84
2023/03/07 06:59:57;;;;;;;;;15.50;11.00;;;;;;;;5062415;28;63920;-83
2023/03/07 07:02:22;;;;;;;;;20.50;15.00;;;;;;;;5064400;28;62237;-83
2023/03/07 07:04:48;;;;;;;;;27.00;17.75;;;;;;;;5064422;28;62036;-84
2023/03/07 07:07:13;;;;;;;;;16.50;14.50;;;;;;;;5064624;28;61691;-84
2023/03/07 07:09:38;;;;;;;;;15.75;13.75;;;;;;;;5062292;28;63607;-84
2023/03/07 07:12:04;;;;;;;;;11.75;10.25;;;;;;;;5064075;28;62309;-83
2023/03/07 07:14:31;;;;;;;;;15.25;12.50;;;;;;;;5063839;28;61961;-84
2023/03/07 07:16:56;;;;;;;;;9.00;8.25;;;;;;;;5060668;28;61754;-86
2023/03/07 07:19:21;;;;;;;;;12.50;11.50;;;;;;;;5053988;28;64970;-89
2023/03/07 07:21:46;;;;;;;;;14.50;10.50;;;;;;;;5062399;28;62357;-84
2023/03/07 07:24:12;;;;;;;;;13.50;11.00;;;;;;;;5063564;28;61722;-85
2023/03/07 07:26:37;;;;;;;;;15.00;12.25;;;;;;;;5064278;28;61876;-84
2023/03/07 07:29:02;;;;;;;;;10.50;10.50;;;;;;;;5063342;28;64004;-84
2023/03/07 07:31:28;;;;;;;;;11.75;11.25;;;;;;;;5068298;28;61868;-83
2023/03/07 07:33:53;;;;;;;;;17.25;12.50;;;;;;;;5088895;28;62249;-83
2023/03/07 07:36:19;;;;;;;;;16.50;14.00;;;;;;;;5069178;28;61750;-84
2023/03/07 07:38:44;;;;;;;;;17.00;11.25;;;;;;;;5091003;27;61795;-82
2023/03/07 07:41:09;;;;;;;;;12.00;10.00;;;;;;;;5072707;28;61644;-83
2023/03/07 07:43:34;;;;;;;;;19.25;14.25;;;;;;;;5073033;28;62063;-84
2023/03/07 07:46:01;;;;;;;;;11.25;10.00;;;;;;;;5073380;28;61768;-83
2023/03/07 07:48:26;;;;;;;;;13.00;10.75;;;;;;;;5071192;28;63796;-84
2023/03/07 07:50:52;;;;;;;;;11.75;10.00;;;;;;;;5070711;28;61530;-84
2023/03/07 07:53:17;;;;;;;;;11.00;7.50;;;;;;;;5067956;28;61922;-84
2023/03/07 07:55:43;;;;;;;;;14.50;10.25;;;;;;;;5060617;28;62177;-85
2023/03/07 07:58:08;;;;;;;;;16.25;12.00;;;;;;;;5078376;28;62064;-85
2023/03/07 08:00:33;;;;;;;;;19.00;11.00;;;;;;;;5073395;28;61758;-85
2023/03/07 08:02:59;;;;;;;;;13.50;12.00;;;;;;;;5081115;28;62060;-86
2023/03/07 08:05:25;;;;;;;;;17.00;9.50;;;;;;;;5084441;27;61669;-87
2023/03/07 08:07:50;;;;;;;;;12.75;10.00;;;;;;;;5074897;28;62063;-85
2023/03/07 08:10:16;;;;;;;;;12.25;11.25;;;;;;;;5079733;28;62146;-82
2023/03/07 08:12:49;;;;;;;;;15.25;11.25;;;;;;;;5076207;28;61876;-86
2023/03/07 08:15:15;;;;;;;;;15.75;9.25;;;;;;;;5077246;28;62538;-84
2023/03/07 08:17:43;;;;;;;;;10.75;9.00;;;;;;;;5084976;27;62070;-81
2023/03/07 08:20:09;;;;;;;;;13.00;10.75;;;;;;;;5060155;28;62121;-82
2023/03/07 08:22:35;;;;;;;;;19.00;15.00;;;;;;;;5073481;27;62362;-80
2023/03/07 08:25:01;;;;;;;;;12.75;11.00;;;;;;;;5078798;28;61927;-83
2023/03/07 08:27:26;;;;;;;;;14.00;9.00;;;;;;;;5077921;28;62178;-82
2023/03/07 08:29:52;;;;;;;;;14.00;11.75;;;;;;;;5080439;27;61994;-84
2023/03/07 08:32:17;;;;;;;;;11.00;8.00;;;;;;;;5076112;28;61779;-81
2023/03/07 08:34:42;;;;;;;;;12.25;11.00;;;;;;;;5084330;27;61815;-84
2023/03/07 08:37:09;;;;;;;;;9.25;6.50;;;;;;;;5077828;28;61974;-83
2023/03/07 08:39:35;;;;;;;;;5.25;3.75;;;;;;;;5043582;28;62085;-85
2023/03/07 08:42:00;;;;;;;;;14.75;10.00;;;;;;;;5062696;28;61966;-85
2023/03/07 08:44:25;;;;;;;;;11.00;7.50;;;;;;;;5062285;28;61977;-83
2023/03/07 08:46:50;;;;;;;;;11.75;8.00;;;;;;;;5062949;28;61760;-82
2023/03/07 08:49:16;;;;;;;;;12.50;9.50;;;;;;;;5045844;28;62035;-81
2023/03/07 08:51:41;;;;;;;;;14.50;10.25;;;;;;;;5065261;28;61903;-83
2023/03/07 08:54:06;;;;;;;;;12.50;12.00;;;;;;;;5052828;28;62437;-82
2023/03/07 08:56:31;;;;;;;;;12.50;8.25;;;;;;;;5062436;28;62073;-80
2023/03/07 08:58:57;;;;;;;;;10.50;10.50;;;;;;;;5061628;28;61845;-81
2023/03/07 09:01:22;;;;;;;;;13.25;8.50;;;;;;;;5071855;28;62184;-83
2023/03/07 09:03:47;;;;;;;;;7.00;6.75;;;;;;;;5066564;28;62199;-83
2023/03/07 09:06:17;;;;;;;;;13.50;9.00;;;;;;;;5063576;28;63675;-83
2023/03/07 09:08:43;;;;;;;;;14.75;9.00;;;;;;;;5073416;27;61883;-83
2023/03/07 09:11:08;;;;;;;;;16.00;7.75;;;;;;;;5067858;27;62175;-83
2023/03/07 09:13:33;;;;;;;;;10.00;7.25;;;;;;;;5059867;28;61957;-86
2023/03/07 09:15:59;;;;;;;;;10.75;8.50;;;;;;;;5058341;28;63700;-81
2023/03/07 09:18:24;;;;;;;;;10.50;7.00;;;;;;;;5082567;28;62042;-85
2023/03/07 09:20:49;;;;;;;;;13.00;10.00;;;;;;;;5082862;27;62521;-83
2023/03/07 09:23:14;;;;;;;;;11.50;7.75;;;;;;;;5071763;28;61990;-83
2023/03/07 09:25:41;;;;;;;;;12.75;9.25;;;;;;;;5055505;28;63954;-83
2023/03/07 09:28:06;;;;;;;;;12.00;10.75;;;;;;;;5054158;28;62751;-82
2023/03/07 09:30:31;;;;;;;;;9.75;8.00;;;;;;;;5051816;28;62214;-81
2023/03/07 09:32:57;;;;;;;;;15.75;8.75;;;;;;;;5072544;28;61692;-82
2023/03/07 09:35:22;;;;;;;;;12.00;8.75;;;;;;;;5074157;28;61989;-82
2023/03/07 09:37:48;;;;;;;;;11.00;8.25;;;;;;;;5056282;28;61907;-83
2023/03/07 09:40:18;;;;;;;;;18.00;10.25;;;;;;;;5052783;28;61961;-83
2023/03/07 09:42:50;;;;;;;;;14.00;11.50;;;;;;;;5073952;28;62044;-82
2023/03/07 09:45:18;;;;;;;;;17.25;9.25;;;;;;;;5059494;28;63797;-82
2023/03/07 09:47:43;;;;;;;;;17.00;9.00;;;;;;;;5061418;28;62054;-82
2023/03/07 09:50:22;;;;;;;;;13.00;11.75;;;;;;;;5061174;27;61929;-83
2023/03/07 09:52:49;;;;;;;;;14.00;12.50;;;;;;;;5084378;27;61832;-82
2023/03/07 09:55:16;;;;;;;;;12.00;9.00;;;;;;;;5080844;27;64020;-83
2023/03/07 09:57:54;;;;;;;;;12.00;8.00;;;;;;;;5058433;28;62001;-82
2023/03/07 10:00:30;;;;;;;;;11.50;9.25;;;;;;;;5076595;27;61922;-83
2023/03/07 10:03:02;;;;;;;;;8.50;8.25;;;;;;;;5058616;28;62274;-83
2023/03/07 10:05:50;;;;;;;;;16.75;11.75;;;;;;;;5070502;28;61856;-85
2023/03/07 10:08:19;;;;;;;;;13.00;9.50;;;;;;;;5058984;28;61756;-85
2023/03/07 10:10:47;;;;;;;;;9.50;8.25;;;;;;;;5067001;27;62071;-85
2023/03/07 10:13:32;;;;;;;;;15.50;10.00;;;;;;;;5070003;28;61786;-83
2023/03/07 10:16:00;;;;;;;;;16.00;10.00;;;;;;;;5083426;27;62093;-83
2023/03/07 10:18:40;;;;;;;;;12.75;10.50;;;;;;;;5073996;27;62115;-84
2023/03/07 10:21:24;;;;;;;;;14.50;13.00;;;;;;;;5053841;28;61856;-84
2023/03/07 10:23:59;;;;;;;;;21.25;10.00;;;;;;;;5083602;27;61684;-84
2023/03/07 10:26:37;;;;;;;;;7.25;7.25;;;;;;;;5062718;28;65562;-84
2023/03/07 10:29:13;;;;;;;;;12.00;10.00;;;;;;;;5078498;28;62143;-84
2023/03/07 10:31:41;;;;;;;;;12.50;10.00;;;;;;;;5083945;27;61771;-84
2023/03/07 10:34:26;;;;;;;;;18.50;9.50;;;;;;;;5077656;27;62409;-83
2023/03/07 10:36:54;;;;;;;;;15.00;9.00;;;;;;;;5075563;27;62090;-84
2023/03/07 10:39:26;;;;;;;;;13.00;9.25;;;;;;;;5084493;28;61719;-84
2023/03/07 10:41:52;;;;;;;;;9.75;8.50;;;;;;;;5057228;28;62128;-82
2023/03/07 10:44:19;;;;;;;;;11.25;10.25;;;;;;;;5075845;27;61748;-83
2023/03/07 10:46:45;;;;;;;;;19.25;9.50;;;;;;;;5061588;28;63888;-87
2023/03/07 10:49:31;;;;;;;;;13.25;9.00;;;;;;;;5054120;28;62107;-78
2023/03/07 10:51:59;;;;;;;;;10.00;9.00;;;;;;;;5075005;28;61662;-83
2023/03/07 10:54:29;;;;;;;;;10.00;7.50;;;;;;;;5082332;28;62137;-82
2023/03/07 10:57:02;;;;;;;;;11.00;11.00;;;;;;;;5081029;27;63975;-82
2023/03/07 10:59:28;;;;;;;;;9.75;9.00;;;;;;;;5083055;27;61862;-82
2023/03/07 11:01:55;;;;;;;;;11.00;7.75;;;;;;;;5065208;28;61859;-82
2023/03/07 11:04:22;;;;;;;;;13.75;10.25;;;;;;;;5065440;28;61836;-83
2023/03/07 11:06:58;;;;;;;;;12.50;10.00;;;;;;;;5064852;28;64631;-83
2023/03/07 11:09:45;;;;;;;;;9.25;7.75;;;;;;;;5084866;27;62001;-85
2023/03/07 11:12:12;;;;;;;;;16.00;10.00;;;;;;;;5062666;28;62068;-82
2023/03/07 11:15:07;;;;;;;;;14.50;8.75;;;;;;;;5066005;28;62008;-85
2023/03/07 11:17:46;;;;;;;;;12.50;8.00;;;;;;;;5084099;28;61964;-85
2023/03/07 11:20:22;;;;;;;;;10.50;8.75;;;;;;;;5066926;28;61953;-84
2023/03/07 11:22:48;;;;;;;;;10.50;8.25;;;;;;;;5073897;28;61776;-80
2023/03/07 11:25:25;;;;;;;;;10.25;10.25;;;;;;;;5058433;28;62833;-83
2023/03/07 11:27:55;;;;;;;;;13.50;8.75;;;;;;;;5057777;28;63687;-88
2023/03/07 11:30:26;;;;;;;;;8.75;7.75;;;;;;;;5073761;27;62065;-82
2023/03/07 11:33:00;;;;;;;;;10.00;8.00;;;;;;;;5082203;27;61822;-84
2023/03/07 11:35:37;;;;;;;;;7.00;6.00;;;;;;;;5078129;28;61889;-82
2023/03/07 11:38:03;;;;;;;;;11.50;6.00;;;;;;;;5044196;28;63745;-83
2023/03/07 11:40:34;;;;;;;;;8.50;5.50;;;;;;;;5045592;28;61843;-81
2023/03/07 11:43:32;;;;;;;;;10.00;6.00;;;;;;;;5054061;27;61911;-85
2023/03/07 11:46:10;;;;;;;;;8.00;8.00;;;;;;;;4964507;28;61916;-83
2023/03/07 11:48:38;;;;;;;;;11.50;7.75;;;;;;;;4980736;28;63330;-83
2023/03/07 11:51:05;;;;;;;;;8.50;6.50;;;;;;;;4989957;28;62110;-83
2023/03/07 11:53:30;;;;;;;;;8.25;4.50;;;;;;;;4989009;28;61860;-84
2023/03/07 11:56:16;;;;;;;;;7.00;5.00;;;;;;;;4981790;28;61956;-83
2023/03/07 11:58:57;;;;;;;;;8.75;7.00;;;;;;;;4996206;28;62035;-84
2023/03/07 12:01:36;;;;;;;;;12.00;8.00;;;;;;;;4999197;28;61970;-84
2023/03/07 12:04:01;;;;;;;;;7.00;6.00;;;;;;;;4975796;28;61908;-85
2023/03/07 12:06:34;;;;;;;;;10.50;8.50;;;;;;;;4981007;28;61853;-83
2023/03/07 12:09:12;;;;;;;;;9.25;5.25;;;;;;;;4986262;28;62059;-83
2023/03/07 12:11:54;;;;;;;;;7.25;6.00;;;;;;;;4977869;28;62021;-84
2023/03/07 12:14:24;;;;;;;;;14.00;6.50;;;;;;;;4986968;28;61903;-82
2023/03/07 12:16:52;;;;;;;;;9.00;5.25;;;;;;;;4988762;28;62243;-83
2023/03/07 12:19:36;;;;;;;;;12.50;6.25;;;;;;;;4988241;28;63585;-84
2023/03/07 12:22:24;;;;;;;;;5.50;5.50;;;;;;;;5044970;28;61942;-82
2023/03/07 12:24:52;;;;;;;;;13.75;5.25;;;;;;;;5056659;28;62132;-82
2023/03/07 12:27:47;;;;;;;;;9.00;4.00;;;;;;;;5073276;28;61808;-81
2023/03/07 12:30:19;;;;;;;;;5.75;2.50;;;;;;;;4993219;28;61929;-83
2023/03/07 12:32:44;;;;;;;;;4.75;4.75;;;;;;;;4992818;28;62090;-82
2023/03/07 12:35:28;;;;;;;;;9.25;8.50;;;;;;;;4985397;28;61883;-83
2023/03/07 12:38:10;;;;;;;;;7.50;6.25;;;;;;;;4984981;28;61877;-83
2023/03/07 12:40:46;;;;;;;;;8.00;7.00;;;;;;;;4983317;28;63824;-84
2023/03/07 12:43:11;;;;;;;;;6.50;6.25;;;;;;;;4983556;28;61817;-83
2023/03/07 12:45:47;;;;;;;;;12.50;6.25;;;;;;;;4983660;28;62024;-84
2023/03/07 12:48:29;;;;;;;;;6.50;6.25;;;;;;;;4999330;28;61930;-84
2023/03/07 12:51:03;;;;;;;;;9.25;3.75;;;;;;;;4982487;28;64262;-81
2023/03/07 12:53:37;;;;;;;;;10.00;6.00;;;;;;;;4982951;28;61861;-81
2023/03/07 12:56:02;;;;;;;;;8.00;4.00;;;;;;;;4983118;28;62119;-81
2023/03/07 12:58:46;;;;;;;;;7.75;5.75;;;;;;;;4990221;28;61999;-82
2023/03/07 13:01:13;;;;;;;;;4.00;4.00;;;;;;;;4978885;28;62923;-81
2023/03/07 13:03:57;;;;;;;;;6.50;3.00;;;;;;;;4980113;28;61751;-83
2023/03/07 13:06:23;;;;;;;;;11.25;5.75;;;;;;;;4994580;28;61922;-83
2023/03/07 13:08:50;;;;;;;;;4.00;4.00;;;;;;;;5062330;28;61681;-81
2023/03/07 13:11:26;;;;;;;;;7.25;1.00;;;;;;;;5058549;28;64743;-81
2023/03/07 13:13:58;;;;;;;;;6.75;4.00;;;;;;;;5063093;28;61921;-81
2023/03/07 13:16:35;;;;;;;;;8.00;4.25;;;;;;;;5078927;28;61949;-81
2023/03/07 13:19:19;;;;;;;;;9.00;3.00;;;;;;;;5079541;27;61684;-81
2023/03/07 13:21:44;;;;;;;;;4.75;4.00;;;;;;;;5059573;28;63700;-81
2023/03/07 13:24:32;;;;;;;;;7.00;3.50;;;;;;;;5080196;27;62004;-82
2023/03/07 13:26:58;;;;;;;;;8.25;6.75;;;;;;;;5061403;27;61990;-83
2023/03/07 13:29:42;;;;;;;;;10.00;6.00;;;;;;;;5057034;27;61956;-83
2023/03/07 13:32:34;;;;;;;;;5.75;4.75;;;;;;;;5058241;27;63955;-83
2023/03/07 13:34:59;;;;;;;;;6.25;6.25;;;;;;;;4973534;28;61922;-83
2023/03/07 13:37:46;;;;;;;;;7.75;5.25;;;;;;;;4966568;28;62234;-80
2023/03/07 13:40:27;;;;;;;;;4.00;4.00;;;;;;;;4966427;28;61882;-79
2023/03/07 13:42:53;;;;;;;;;9.00;7.00;;;;;;;;4965824;28;64158;-81
2023/03/07 13:45:36;;;;;;;;;7.00;7.00;;;;;;;;4965517;28;62017;-83
2023/03/07 13:48:02;;;;;;;;;6.50;4.50;;;;;;;;4982869;28;61989;-84
2023/03/07 13:50:36;;;;;;;;;6.75;6.50;;;;;;;;4983007;28;61798;-83
2023/03/07 13:53:07;;;;;;;;;3.00;2.50;;;;;;;;4982082;28;61885;-83
2023/03/07 13:55:41;;;;;;;;;10.25;7.50;;;;;;;;4966155;28;61766;-83
2023/03/07 13:58:19;;;;;;;;;5.25;5.25;;;;;;;;4965616;28;61911;-81
2023/03/07 14:00:52;;;;;;;;;10.50;8.00;;;;;;;;4981979;28;62088;-80
2023/03/07 14:03:39;;;;;;;;;8.75;8.75;;;;;;;;4964434;28;64993;-80
2023/03/07 14:06:09;;;;;;;;;8.50;5.00;;;;;;;;4976529;28;62215;-81
2023/03/07 14:08:35;;;;;;;;;13.50;8.25;;;;;;;;4969476;28;61993;-81
2023/03/07 14:11:01;;;;;;;;;2.50;2.50;;;;;;;;4986124;28;62002;-81
2023/03/07 14:13:39;;;;;;;;;10.00;5.00;;;;;;;;5065013;28;64885;-80
2023/03/07 14:16:07;;;;;;;;;7.75;6.75;;;;;;;;5066303;28;61921;-82
2023/03/07 14:18:32;;;;;;;;;8.50;6.00;;;;;;;;5066531;28;61879;-81
2023/03/07 14:21:08;;;;;;;;;7.75;4.00;;;;;;;;5066092;28;61729;-81
2023/03/07 14:23:52;;;;;;;;;5.50;3.75;;;;;;;;5064049;28;63546;-82
2023/03/07 14:26:27;;;;;;;;;9.75;4.75;;;;;;;;5065799;28;62358;-83
2023/03/07 14:28:57;;;;;;;;;11.75;5.50;;;;;;;;5083597;28;61787;-83
2023/03/07 14:31:24;;;;;;;;;10.75;9.00;;;;;;;;5065128;28;61986;-83